createdAt,value
2019-06-26T00:00:36.549Z,6.37
2019-06-26T00:03:07.334Z,6.23
2019-06-26T00:05:36.905Z,6.50
2019-06-26T00:08:06.667Z,6.37
2019-06-26T00:10:36.296Z,6.40
2019-06-26T00:13:05.950Z,7.13
2019-06-26T00:15:35.535Z,6.33
2019-06-26T00:18:06.234Z,6.30
2019-06-26T00:20:35.832Z,6.03
2019-06-26T00:23:05.413Z,6.60
2019-06-26T00:25:34.999Z,6.43
2019-06-26T00:28:04.672Z,6.17
2019-06-26T00:30:34.271Z,5.80
2019-06-26T00:33:03.847Z,6.13
2019-06-26T00:35:33.573Z,5.80
2019-06-26T00:38:03.166Z,6.27
2019-06-26T00:40:32.760Z,6.60
2019-06-26T00:43:02.350Z,6.50
2019-06-26T00:45:31.915Z,6.77
2019-06-26T00:48:01.508Z,7.13
2019-06-26T00:50:31.085Z,6.40
2019-06-26T00:53:00.694Z,6.33
2019-06-26T00:55:30.268Z,5.97
2019-06-26T00:57:59.847Z,6.53
2019-06-26T01:00:34.024Z,6.10
2019-06-26T01:03:03.598Z,6.00
2019-06-26T01:05:33.175Z,6.80
2019-06-26T01:08:02.771Z,6.83
2019-06-26T01:10:32.342Z,6.37
2019-06-26T01:13:03.498Z,6.20
2019-06-26T01:15:33.074Z,6.60
2019-06-26T01:18:02.670Z,5.93
2019-06-26T01:20:32.241Z,6.03
2019-06-26T01:23:02.964Z,6.50
2019-06-26T01:25:32.535Z,6.50
2019-06-26T01:28:02.122Z,6.80
2019-06-26T01:30:31.703Z,6.37
2019-06-26T01:33:01.283Z,6.40
2019-06-26T01:35:30.951Z,6.07
2019-06-26T01:38:00.521Z,6.83
2019-06-26T01:40:30.152Z,6.00
2019-06-26T01:42:59.702Z,6.27
2019-06-26T01:45:29.282Z,6.17
2019-06-26T01:47:58.866Z,6.73
2019-06-26T01:50:28.445Z,6.07
2019-06-26T01:52:58.030Z,6.60
2019-06-26T01:55:27.611Z,6.43
2019-06-26T01:57:57.196Z,6.47
2019-06-26T02:00:27.106Z,6.60
2019-06-26T02:02:58.038Z,6.73
2019-06-26T02:05:27.654Z,6.00
2019-06-26T02:07:57.215Z,6.17
2019-06-26T02:10:26.809Z,6.80
2019-06-26T02:12:56.509Z,7.13
2019-06-26T02:15:26.215Z,5.90
2019-06-26T02:17:55.795Z,6.33
2019-06-26T02:20:25.413Z,6.07
2019-06-26T02:22:55.019Z,5.87
2019-06-26T02:25:24.639Z,6.20
2019-06-26T02:27:54.261Z,6.70
2019-06-26T02:30:23.836Z,6.50
2019-06-26T02:32:53.425Z,6.40
2019-06-26T02:35:23.016Z,6.53
2019-06-26T02:37:52.617Z,6.57
2019-06-26T02:40:23.610Z,6.50
2019-06-26T02:42:53.194Z,6.97
2019-06-26T02:45:22.780Z,6.27
2019-06-26T02:47:52.357Z,7.07
2019-06-26T02:50:21.976Z,6.60
2019-06-26T02:52:51.522Z,6.67
2019-06-26T02:55:21.139Z,7.07
2019-06-26T02:57:50.690Z,7.27
2019-06-26T03:00:21.917Z,7.07
2019-06-26T03:05:26.650Z,7.00
2019-06-26T03:07:56.214Z,7.37
2019-06-26T03:10:25.789Z,8.00
2019-06-26T03:12:55.383Z,7.83
2019-06-26T03:15:25.032Z,7.77
2019-06-26T03:17:55.920Z,7.80
2019-06-26T03:20:30.152Z,8.13
2019-06-26T03:22:59.806Z,7.83
2019-06-26T03:25:29.475Z,7.60
2019-06-26T03:27:59.057Z,7.80
2019-06-26T03:30:28.706Z,8.30
2019-06-26T03:32:58.294Z,7.70
2019-06-26T03:35:27.878Z,7.57
2019-06-26T03:37:57.467Z,7.60
2019-06-26T03:40:27.218Z,7.90
2019-06-26T03:42:56.774Z,7.40
2019-06-26T03:45:26.671Z,8.10
2019-06-26T03:47:56.407Z,7.73
2019-06-26T03:50:26.101Z,7.50
2019-06-26T03:52:55.758Z,7.97
2019-06-26T03:55:25.407Z,8.10
2019-06-26T03:57:54.998Z,7.50
2019-06-26T04:00:32.016Z,8.00
2019-06-26T04:03:01.599Z,9.13
2019-06-26T04:05:31.180Z,9.10
2019-06-26T04:08:00.748Z,8.93
2019-06-26T04:10:30.335Z,9.40
2019-06-26T04:12:59.929Z,8.73
2019-06-26T04:15:41.292Z,9.10
2019-06-26T04:18:00.875Z,9.00
2019-06-26T04:20:30.464Z,8.90
2019-06-26T04:23:00.054Z,8.83
2019-06-26T04:25:29.623Z,8.80
2019-06-26T04:27:59.211Z,8.60
2019-06-26T04:30:28.779Z,8.43
2019-06-26T04:32:58.550Z,8.10
2019-06-26T04:35:28.139Z,8.00
2019-06-26T04:37:57.719Z,8.53
2019-06-26T04:40:27.299Z,8.67
2019-06-26T04:42:56.876Z,8.43
2019-06-26T04:45:26.514Z,8.07
2019-06-26T04:47:56.087Z,8.10
2019-06-26T04:50:27.798Z,8.70
2019-06-26T04:52:57.410Z,8.43
2019-06-26T04:55:26.995Z,8.53
2019-06-26T04:57:56.562Z,8.80
2019-06-26T05:00:26.796Z,8.90
2019-06-26T05:02:56.368Z,8.80
2019-06-26T05:05:38.965Z,8.10
2019-06-26T05:07:57.251Z,8.40
2019-06-26T05:10:26.828Z,8.23
2019-06-26T05:12:56.430Z,8.17
2019-06-26T05:15:26.000Z,7.93
2019-06-26T05:17:55.627Z,7.67
2019-06-26T05:20:25.186Z,8.03
2019-06-26T05:22:54.770Z,9.17
2019-06-26T05:25:24.398Z,9.23
2019-06-26T05:27:53.966Z,9.20
2019-06-26T05:30:24.660Z,9.53
2019-06-26T05:32:54.250Z,9.10
2019-06-26T05:35:23.971Z,9.43
2019-06-26T05:37:54.993Z,10.00
2019-06-26T05:40:24.688Z,9.10
2019-06-26T05:42:54.293Z,9.40
2019-06-26T05:45:24.073Z,9.13
2019-06-26T05:47:53.674Z,8.93
2019-06-26T05:50:23.757Z,8.60
2019-06-26T05:52:53.425Z,8.97
2019-06-26T05:55:24.192Z,8.17
2019-06-26T05:57:53.762Z,7.57
2019-06-26T06:00:23.957Z,7.90
2019-06-26T06:02:54.111Z,7.30
2019-06-26T06:05:23.944Z,8.10
2019-06-26T06:07:53.656Z,8.10
2019-06-26T06:10:24.842Z,7.87
2019-06-26T06:12:54.428Z,7.60
2019-06-26T06:15:24.018Z,8.37
2019-06-26T06:17:53.596Z,7.73
2019-06-26T06:20:30.508Z,8.57
2019-06-26T06:23:00.103Z,8.50
2019-06-26T06:25:31.177Z,8.30
2019-06-26T06:28:02.026Z,8.07
2019-06-26T06:30:31.614Z,7.57
2019-06-26T06:33:01.342Z,7.50
2019-06-26T06:35:30.886Z,7.70
2019-06-26T06:38:00.492Z,8.10
2019-06-26T06:40:30.075Z,8.23
2019-06-26T06:42:59.654Z,7.63
2019-06-26T06:45:29.546Z,7.73
2019-06-26T06:48:00.307Z,7.60
2019-06-26T06:50:30.971Z,8.17
2019-06-26T06:53:00.517Z,7.43
2019-06-26T06:55:30.095Z,8.20
2019-06-26T06:57:59.664Z,7.80
2019-06-26T07:00:29.406Z,8.83
2019-06-26T07:02:58.974Z,8.90
2019-06-26T07:05:28.565Z,8.83
2019-06-26T07:07:58.140Z,8.40
2019-06-26T07:10:27.711Z,8.33
2019-06-26T07:12:57.304Z,8.17
2019-06-26T07:15:28.107Z,7.20
2019-06-26T07:17:57.685Z,7.83
2019-06-26T07:20:27.265Z,8.07
2019-06-26T07:22:58.157Z,8.00
2019-06-26T07:25:27.822Z,8.27
2019-06-26T07:27:57.397Z,8.33
2019-06-26T07:30:27.096Z,7.40
2019-06-26T07:32:56.688Z,6.80
2019-06-26T07:35:26.408Z,7.60
2019-06-26T07:37:59.879Z,7.47
2019-06-26T07:40:27.348Z,7.87
2019-06-26T07:42:56.939Z,7.87
2019-06-26T07:45:27.153Z,7.67
2019-06-26T07:47:57.732Z,7.70
2019-06-26T07:50:27.297Z,7.37
2019-06-26T07:52:56.876Z,7.00
2019-06-26T07:55:26.467Z,8.10
2019-06-26T07:57:56.042Z,8.23
2019-06-26T08:00:25.695Z,7.33
2019-06-26T08:02:56.590Z,7.47
2019-06-26T08:05:26.173Z,7.50
2019-06-26T08:07:57.854Z,7.27
2019-06-26T08:10:27.422Z,7.30
2019-06-26T08:12:57.038Z,7.33
2019-06-26T08:15:26.616Z,7.83
2019-06-26T08:18:00.950Z,7.27
2019-06-26T08:20:27.500Z,7.87
2019-06-26T08:22:57.108Z,7.27
2019-06-26T08:25:26.690Z,8.23
2019-06-26T08:27:56.260Z,7.70
2019-06-26T08:30:26.200Z,8.20
2019-06-26T08:32:55.846Z,7.53
2019-06-26T08:35:25.475Z,7.70
2019-06-26T08:38:09.017Z,7.73
2019-06-26T08:40:26.351Z,8.00
2019-06-26T08:42:56.220Z,7.90
2019-06-26T08:45:25.864Z,8.10
2019-06-26T08:47:55.562Z,7.50
2019-06-26T08:50:25.281Z,7.93
2019-06-26T08:52:54.853Z,7.63
2019-06-26T08:55:24.440Z,6.80
2019-06-26T08:57:54.013Z,7.43
2019-06-26T09:00:23.911Z,7.97
2019-06-26T09:02:53.495Z,7.77
2019-06-26T09:05:23.205Z,7.50
2019-06-26T09:07:52.965Z,8.43
2019-06-26T09:10:22.661Z,7.67
2019-06-26T09:12:55.206Z,7.67
2019-06-26T09:15:24.759Z,7.97
2019-06-26T09:17:55.586Z,7.90
2019-06-26T09:20:29.727Z,7.83
2019-06-26T09:22:59.308Z,8.10
2019-06-26T09:25:28.892Z,8.03
2019-06-26T09:27:58.986Z,7.83
2019-06-26T09:30:28.635Z,7.93
2019-06-26T09:32:58.215Z,7.57
2019-06-26T09:35:27.810Z,7.40
2019-06-26T09:37:58.479Z,8.50
2019-06-26T09:40:31.624Z,7.70
2019-06-26T09:42:59.359Z,8.57
2019-06-26T09:45:29.033Z,7.20
2019-06-26T09:47:58.671Z,7.87
2019-06-26T09:50:29.364Z,7.17
2019-06-26T09:52:58.900Z,6.97
2019-06-26T09:55:33.522Z,7.67
2019-06-26T09:58:03.118Z,7.50
2019-06-26T10:00:33.534Z,7.53
2019-06-26T10:03:03.149Z,8.33
2019-06-26T10:05:32.741Z,8.50
2019-06-26T10:08:02.362Z,8.53
2019-06-26T10:10:31.929Z,8.40
2019-06-26T10:13:01.504Z,8.43
2019-06-26T10:15:31.082Z,7.70
2019-06-26T10:18:00.678Z,7.77
2019-06-26T10:20:31.719Z,8.10
2019-06-26T10:23:01.258Z,7.40
2019-06-26T10:25:30.939Z,7.43
2019-06-26T10:28:00.496Z,7.40
2019-06-26T10:30:30.082Z,7.67
2019-06-26T10:33:00.427Z,7.60
2019-06-26T10:35:30.017Z,7.97
2019-06-26T10:37:59.589Z,7.87
2019-06-26T10:40:30.696Z,7.42
2019-06-26T10:43:00.491Z,7.43
2019-06-26T10:45:30.071Z,7.22
2019-06-26T10:48:01.300Z,6.40
2019-06-26T10:50:30.900Z,7.10
2019-06-26T10:53:00.468Z,7.10
2019-06-26T10:55:30.051Z,7.37
2019-06-26T10:57:59.633Z,6.90
2019-06-26T11:00:30.720Z,6.45
2019-06-26T11:03:00.303Z,7.33
2019-06-26T11:05:29.879Z,6.60
2019-06-26T11:07:59.467Z,7.20
2019-06-26T11:10:29.101Z,6.72
2019-06-26T11:12:58.647Z,6.42
2019-06-26T11:15:28.235Z,6.53
2019-06-26T11:17:59.357Z,6.17
2019-06-26T11:20:29.005Z,6.35
2019-06-26T11:22:58.579Z,6.00
2019-06-26T11:25:28.193Z,5.87
2019-06-26T11:27:59.350Z,6.20
2019-06-26T11:30:29.249Z,6.20
2019-06-26T11:32:58.855Z,6.37
2019-06-26T11:35:28.583Z,5.90
2019-06-26T11:37:58.149Z,6.08
2019-06-26T11:40:29.269Z,6.20
2019-06-26T11:42:58.844Z,6.47
2019-06-26T11:45:28.521Z,6.10
2019-06-26T11:47:58.095Z,6.42
2019-06-26T11:50:27.805Z,6.50
2019-06-26T11:52:57.431Z,6.20
2019-06-26T11:55:27.051Z,6.30
2019-06-26T11:57:57.939Z,6.80
2019-06-26T12:00:29.043Z,6.62
2019-06-26T12:02:58.689Z,5.80
2019-06-26T12:05:28.280Z,6.03
2019-06-26T12:07:57.854Z,5.85
2019-06-26T12:10:27.428Z,6.15
2019-06-26T12:12:57.020Z,6.12
2019-06-26T12:15:26.968Z,5.70
2019-06-26T12:17:56.600Z,6.08
2019-06-26T12:20:26.463Z,6.03
2019-06-26T12:22:56.156Z,5.75
2019-06-26T12:25:25.729Z,6.10
2019-06-26T12:27:55.998Z,5.97
2019-06-26T12:30:26.097Z,6.40
2019-06-26T12:33:02.759Z,5.40
2019-06-26T12:35:27.003Z,5.67
2019-06-26T12:37:56.608Z,5.55
2019-06-26T12:40:26.160Z,10.28
2019-06-26T12:42:55.997Z,10.10
2019-06-26T12:45:26.271Z,7.70
2019-06-26T12:47:57.416Z,6.78
2019-06-26T12:50:35.184Z,5.65
2019-06-26T12:52:59.877Z,5.80
2019-06-26T12:55:32.712Z,5.80
2019-06-26T12:58:12.601Z,5.72
2019-06-26T13:00:32.079Z,5.17
2019-06-26T13:03:01.658Z,5.72
2019-06-26T13:05:32.655Z,7.10
2019-06-26T13:08:02.255Z,10.53
2019-06-26T13:10:45.016Z,5.30
2019-06-26T13:13:03.119Z,5.00
2019-06-26T13:15:32.699Z,5.42
2019-06-26T13:18:02.372Z,4.70
2019-06-26T13:20:31.970Z,5.80
2019-06-26T13:23:01.542Z,5.15
2019-06-26T13:25:31.099Z,4.75
2019-06-26T13:28:00.674Z,4.92
2019-06-26T13:30:40.846Z,5.10
2019-06-26T13:33:12.764Z,5.33
2019-06-26T13:35:42.381Z,5.33
2019-06-26T13:38:11.967Z,5.05
2019-06-26T13:40:41.547Z,5.20
2019-06-26T13:43:12.895Z,5.17
2019-06-26T13:45:42.572Z,5.33
2019-06-26T13:48:12.147Z,5.22
2019-06-26T13:50:41.870Z,5.20
2019-06-26T13:53:11.464Z,5.40
2019-06-26T13:55:42.835Z,6.22
2019-06-26T13:58:12.421Z,5.33
2019-06-26T14:00:42.006Z,5.15
2019-06-26T14:03:11.577Z,5.90
2019-06-26T14:05:41.178Z,5.83
2019-06-26T14:08:10.824Z,5.50
2019-06-26T14:10:40.466Z,5.97
2019-06-26T14:13:10.052Z,5.78
2019-06-26T14:15:39.626Z,5.37
2019-06-26T14:18:09.296Z,5.35
2019-06-26T14:20:38.876Z,5.62
2019-06-26T14:23:08.446Z,6.55
2019-06-26T14:25:38.600Z,5.72
2019-06-26T14:28:09.876Z,5.97
2019-06-26T14:30:39.527Z,5.60
2019-06-26T14:33:10.885Z,5.50
2019-06-26T14:35:40.464Z,5.97
2019-06-26T14:38:10.043Z,5.67
2019-06-26T14:40:39.619Z,5.67
2019-06-26T14:43:09.200Z,6.80
2019-06-26T14:45:38.802Z,7.12
2019-06-26T14:48:08.389Z,6.60
2019-06-26T14:50:38.111Z,6.28
2019-06-26T14:53:07.787Z,6.55
2019-06-26T14:55:37.315Z,6.42
2019-06-26T14:58:06.926Z,6.62
2019-06-26T15:00:36.500Z,6.45
2019-06-26T15:03:06.087Z,6.95
2019-06-26T15:05:35.669Z,6.50
2019-06-26T15:08:05.240Z,6.87
2019-06-26T15:10:34.834Z,6.25
2019-06-26T15:13:04.474Z,7.00
2019-06-26T15:15:34.065Z,7.30
2019-06-26T15:18:03.699Z,7.50
2019-06-26T15:20:34.073Z,7.03
2019-06-26T15:23:03.708Z,6.25
2019-06-26T15:25:33.298Z,6.45
2019-06-26T15:28:02.944Z,6.67
2019-06-26T15:30:32.483Z,7.00
2019-06-26T15:33:02.098Z,6.75
2019-06-26T15:35:31.678Z,7.42
2019-06-26T15:38:01.263Z,6.60
2019-06-26T15:40:30.924Z,5.97
2019-06-26T15:43:01.513Z,6.20
2019-06-26T15:45:31.094Z,7.30
2019-06-26T15:48:00.675Z,7.28
2019-06-26T15:50:30.259Z,8.80
2019-06-26T15:52:59.942Z,6.53
2019-06-26T15:55:29.527Z,7.92
2019-06-26T15:57:59.114Z,7.15
2019-06-26T16:00:29.779Z,6.53
2019-06-26T16:03:02.181Z,6.30
2019-06-26T16:05:34.767Z,7.55
2019-06-26T16:08:05.155Z,6.95
2019-06-26T16:10:35.644Z,6.95
2019-06-26T16:13:06.066Z,7.70
2019-06-26T16:15:36.643Z,8.30
2019-06-26T16:18:09.274Z,7.08
2019-06-26T16:20:38.849Z,7.40
2019-06-26T16:23:08.433Z,7.35
2019-06-26T16:25:38.096Z,8.05
2019-06-26T16:28:13.280Z,8.40
2019-06-26T16:30:42.868Z,7.65
2019-06-26T16:33:12.449Z,9.08
2019-06-26T16:35:42.043Z,8.23
2019-06-26T16:38:11.644Z,7.75
2019-06-26T16:40:41.238Z,7.08
2019-06-26T16:43:10.839Z,7.90
2019-06-26T16:45:40.431Z,7.67
2019-06-26T16:48:10.002Z,8.10
2019-06-26T16:50:39.595Z,7.85
2019-06-26T16:53:09.246Z,8.78
2019-06-26T16:55:38.844Z,8.23
2019-06-26T16:58:08.430Z,9.25
2019-06-26T17:00:38.000Z,8.13
2019-06-26T17:03:07.609Z,8.95
2019-06-26T17:05:37.186Z,8.50
2019-06-26T17:08:06.840Z,8.35
2019-06-26T17:10:36.440Z,8.15
2019-06-26T17:13:06.085Z,8.78
2019-06-26T17:15:37.410Z,9.08
2019-06-26T17:18:07.040Z,8.38
2019-06-26T17:20:36.619Z,7.92
2019-06-26T17:23:07.056Z,8.08
2019-06-26T17:25:36.659Z,8.70
2019-06-26T17:28:07.555Z,7.95
2019-06-26T17:30:37.138Z,7.80
2019-06-26T17:33:06.734Z,7.53
2019-06-26T17:35:36.394Z,7.70
2019-06-26T17:38:05.985Z,7.45
2019-06-26T17:40:35.557Z,7.25
2019-06-26T17:43:12.240Z,7.70
2019-06-26T17:45:38.158Z,7.35
2019-06-26T17:48:07.810Z,7.50
2019-06-26T17:50:37.393Z,7.47
2019-06-26T17:53:20.584Z,7.28
2019-06-26T17:55:38.293Z,7.75
2019-06-26T17:58:07.887Z,7.45
2019-06-26T18:00:37.607Z,7.90
2019-06-26T18:03:07.206Z,8.35
2019-06-26T18:05:36.789Z,9.05
2019-06-26T18:08:06.463Z,8.73
2019-06-26T18:10:36.086Z,8.55
2019-06-26T18:13:05.670Z,9.60
2019-06-26T18:15:35.256Z,8.75
2019-06-26T18:18:04.844Z,8.70
2019-06-26T18:20:34.431Z,8.68
2019-06-26T18:23:07.637Z,8.35
2019-06-26T18:25:35.319Z,8.00
2019-06-26T18:28:04.980Z,11.75
2019-06-26T18:30:34.562Z,10.75
2019-06-26T18:33:04.159Z,15.38
2019-06-26T18:35:33.748Z,17.10
2019-06-26T18:38:03.358Z,11.88
2019-06-26T18:40:32.939Z,9.98
2019-06-26T18:43:03.752Z,10.05
2019-06-26T18:45:35.773Z,8.40
2019-06-26T18:48:05.465Z,8.58
2019-06-26T18:50:38.554Z,8.10
2019-06-26T18:53:09.376Z,7.85
2019-06-26T18:55:38.958Z,9.40
2019-06-26T18:58:08.626Z,8.50
2019-06-26T19:00:38.226Z,10.30
2019-06-26T19:03:09.072Z,9.45
2019-06-26T19:05:38.605Z,9.68
2019-06-26T19:08:08.185Z,9.50
2019-06-26T19:10:37.803Z,9.93
2019-06-26T19:13:07.370Z,9.90
2019-06-26T19:15:37.034Z,10.03
2019-06-26T19:18:06.613Z,9.70
2019-06-26T19:20:37.243Z,10.43
2019-06-26T19:23:06.765Z,10.15
2019-06-26T19:25:36.359Z,10.23
2019-06-26T19:28:06.013Z,10.25
2019-06-26T19:30:35.608Z,10.88
2019-06-26T19:33:05.600Z,10.30
2019-06-26T19:35:35.181Z,10.00
2019-06-26T19:38:04.779Z,11.73
2019-06-26T19:40:34.386Z,10.73
2019-06-26T19:43:04.044Z,10.83
2019-06-26T19:45:33.659Z,11.00
2019-06-26T19:48:03.280Z,10.30
2019-06-26T19:50:32.871Z,11.20
2019-06-26T19:53:02.536Z,11.10
2019-06-26T19:55:33.181Z,11.73
2019-06-26T19:58:02.767Z,13.08
2019-06-26T20:00:32.350Z,12.50
2019-06-26T20:03:01.935Z,12.27
2019-06-26T20:05:31.521Z,12.98
2019-06-26T20:08:01.121Z,13.37
2019-06-26T20:10:30.705Z,12.67
2019-06-26T20:13:01.809Z,13.33
2019-06-26T20:15:31.383Z,12.17
2019-06-26T20:18:04.121Z,11.73
2019-06-26T20:20:32.280Z,12.00
2019-06-26T20:23:01.870Z,11.77
2019-06-26T20:25:31.460Z,11.50
2019-06-26T20:28:01.048Z,10.70
2019-06-26T20:30:33.897Z,12.20
2019-06-26T20:33:03.480Z,12.07
2019-06-26T20:35:33.057Z,12.03
2019-06-26T20:38:02.863Z,11.63
2019-06-26T20:40:32.451Z,10.87
2019-06-26T20:43:02.067Z,10.80
2019-06-26T20:45:31.720Z,10.70
2019-06-26T20:48:01.300Z,10.10
2019-06-26T20:50:30.890Z,10.37
2019-06-26T20:53:00.632Z,11.13
2019-06-26T20:55:30.726Z,9.50
2019-06-26T20:58:00.318Z,9.73
2019-06-26T21:00:29.920Z,9.40
2019-06-26T21:03:00.614Z,9.67
2019-06-26T21:05:30.199Z,10.00
2019-06-26T21:07:59.784Z,8.80
2019-06-26T21:10:29.374Z,9.50
2019-06-26T21:12:58.986Z,8.73
2019-06-26T21:15:28.596Z,9.10
2019-06-26T21:17:58.186Z,9.10
2019-06-26T21:20:29.299Z,8.97
2019-06-26T21:22:58.899Z,8.97
2019-06-26T21:25:28.484Z,8.97
2019-06-26T21:27:58.056Z,8.63
2019-06-26T21:30:29.196Z,9.00
2019-06-26T21:32:58.787Z,9.30
2019-06-26T21:35:28.376Z,9.00
2019-06-26T21:37:59.500Z,8.97
2019-06-26T21:40:29.109Z,8.80
2019-06-26T21:43:01.290Z,9.23
2019-06-26T21:45:30.862Z,9.30
2019-06-26T21:48:00.456Z,8.57
2019-06-26T21:50:30.045Z,9.50
2019-06-26T21:53:01.258Z,9.40
2019-06-26T21:55:34.828Z,9.80
2019-06-26T21:58:02.249Z,9.50
2019-06-26T22:00:33.487Z,9.30
2019-06-26T22:03:03.137Z,10.23
2019-06-26T22:05:32.875Z,9.60
2019-06-26T22:08:04.636Z,9.87
2019-06-26T22:10:34.217Z,9.97
2019-06-26T22:13:03.877Z,9.87
2019-06-26T22:15:33.632Z,10.40
2019-06-26T22:18:03.194Z,9.77
2019-06-26T22:20:34.015Z,10.53
2019-06-26T22:23:03.650Z,10.33
2019-06-26T22:25:41.143Z,10.13
2019-06-26T22:28:04.598Z,9.97
2019-06-26T22:30:34.185Z,9.90
2019-06-26T22:33:03.896Z,10.40
2019-06-26T22:35:33.837Z,10.60
2019-06-26T22:38:03.501Z,10.13
2019-06-26T22:40:33.088Z,11.07
2019-06-26T22:43:03.157Z,10.57
2019-06-26T22:45:32.806Z,10.47
2019-06-26T22:48:03.419Z,10.17
2019-06-26T22:50:33.038Z,10.33
2019-06-26T22:53:02.590Z,9.83
2019-06-26T22:55:32.254Z,10.17
2019-06-26T22:58:01.844Z,9.93
2019-06-26T23:00:31.418Z,10.00
2019-06-26T23:03:01.018Z,10.57
2019-06-26T23:05:30.614Z,10.30
2019-06-26T23:08:00.204Z,10.07
2019-06-26T23:10:29.802Z,10.63
2019-06-26T23:12:59.383Z,10.60
2019-06-26T23:15:28.979Z,9.93
2019-06-26T23:17:58.561Z,10.77
2019-06-26T23:20:28.147Z,11.23
2019-06-26T23:22:57.736Z,10.60
2019-06-26T23:25:27.323Z,10.90
2019-06-26T23:27:56.904Z,11.40
2019-06-26T23:30:27.154Z,11.30
2019-06-26T23:32:56.781Z,10.80
2019-06-26T23:35:26.354Z,11.00
2019-06-26T23:37:56.015Z,10.80
2019-06-26T23:40:25.601Z,11.47
2019-06-26T23:42:56.309Z,10.20
2019-06-26T23:45:25.910Z,10.67
2019-06-26T23:47:57.654Z,11.37
2019-06-26T23:50:27.242Z,10.63
2019-06-26T23:52:56.845Z,10.23
2019-06-26T23:55:26.427Z,10.63
2019-06-26T23:57:59.321Z,10.37
